createdAt,value
2022-12-19T00:01:04.290Z,-4.43
2022-12-19T00:04:10.364Z,-4.58
2022-12-19T00:07:13.180Z,-4.70
2022-12-19T00:10:16.304Z,-4.72
2022-12-19T00:13:18.879Z,-4.73
2022-12-19T00:16:27.867Z,-4.67
2022-12-19T00:19:30.744Z,-4.70
2022-12-19T00:22:33.898Z,-4.67
2022-12-19T00:25:36.736Z,-4.49
2022-12-19T00:28:47.855Z,-4.49
2022-12-19T00:31:50.579Z,-4.49
2022-12-19T00:34:53.936Z,-4.42
2022-12-19T00:37:56.827Z,-4.46
2022-12-19T00:41:11.102Z,-4.49
2022-12-19T00:44:14.700Z,-4.49
2022-12-19T00:47:17.919Z,-4.42
2022-12-19T00:50:21.031Z,-4.46
2022-12-19T00:53:24.258Z,-4.51
2022-12-19T00:56:36.192Z,-4.54
2022-12-19T00:59:42.859Z,-4.58
2022-12-19T01:02:45.953Z,-4.58
2022-12-19T01:05:51.072Z,-4.51
2022-12-19T01:08:55.145Z,-4.51
2022-12-19T01:12:17.621Z,-4.51
2022-12-19T01:15:21.258Z,-4.49
2022-12-19T01:18:25.353Z,-4.40
2022-12-19T01:21:28.221Z,-4.41
2022-12-19T01:24:31.440Z,-4.38
2022-12-19T01:27:34.402Z,-4.34
2022-12-19T01:30:40.167Z,-4.27
2022-12-19T01:33:43.098Z,-4.11
2022-12-19T01:36:48.400Z,-3.94
2022-12-19T01:39:51.144Z,-3.90
2022-12-19T01:42:54.188Z,-3.96
2022-12-19T01:46:06.924Z,-4.19
2022-12-19T01:49:32.352Z,-4.21
2022-12-19T01:52:35.395Z,-4.27
2022-12-19T01:55:40.065Z,-4.39
2022-12-19T01:58:46.668Z,-4.40
2022-12-19T02:01:53.219Z,-4.42
2022-12-19T02:04:57.923Z,-4.52
2022-12-19T02:08:01.456Z,-4.49
2022-12-19T02:11:05.842Z,-4.51
2022-12-19T02:14:10.165Z,-4.53
2022-12-19T02:17:53.367Z,-4.54
2022-12-19T02:21:15.005Z,-4.49
2022-12-19T02:24:33.445Z,-4.47
2022-12-19T02:27:53.892Z,-4.51
2022-12-19T02:31:17.381Z,-4.53
2022-12-19T02:34:59.518Z,-4.45
2022-12-19T02:38:12.858Z,-4.42
2022-12-19T02:41:27.720Z,-4.45
2022-12-19T02:44:43.038Z,-4.54
2022-12-19T02:47:47.050Z,-4.62
2022-12-19T02:50:50.628Z,-4.61
2022-12-19T02:53:53.892Z,-4.63
2022-12-19T02:57:24.221Z,-4.66
2022-12-19T03:00:34.677Z,-4.66
2022-12-19T03:03:51.521Z,-4.51
2022-12-19T03:07:09.749Z,-4.51
2022-12-19T03:10:27.649Z,-4.52
2022-12-19T03:13:59.295Z,-4.52
2022-12-19T03:17:05.093Z,-4.49
2022-12-19T03:20:21.706Z,-4.54
2022-12-19T03:23:24.840Z,-4.50
2022-12-19T03:26:36.621Z,-4.32
2022-12-19T03:29:44.000Z,-4.12
2022-12-19T03:32:47.993Z,-3.97
2022-12-19T03:35:52.700Z,-3.91
2022-12-19T03:38:56.592Z,-3.80
2022-12-19T03:42:19.286Z,-3.82
2022-12-19T03:45:27.378Z,-3.84
2022-12-19T03:48:51.285Z,-3.87
2022-12-19T03:52:04.920Z,-3.76
2022-12-19T03:55:33.994Z,-3.73
2022-12-19T03:58:39.029Z,-3.72
2022-12-19T04:01:43.145Z,-3.68
2022-12-19T04:04:51.383Z,-3.67
2022-12-19T04:07:56.970Z,-3.67
2022-12-19T04:11:05.518Z,-3.69
2022-12-19T04:14:12.193Z,-3.71
2022-12-19T04:17:35.269Z,-3.75
2022-12-19T04:20:41.892Z,-3.73
2022-12-19T04:23:52.563Z,-3.75
2022-12-19T04:26:56.371Z,-3.70
2022-12-19T04:30:00.181Z,-3.65
2022-12-19T04:33:03.168Z,-3.64
2022-12-19T04:36:06.807Z,-3.64
2022-12-19T04:39:09.705Z,-3.58
2022-12-19T04:42:12.988Z,-3.47
2022-12-19T04:45:16.842Z,-3.39
2022-12-19T04:48:21.375Z,-3.24
2022-12-19T04:51:24.290Z,-3.09
2022-12-19T04:54:28.392Z,-3.09
2022-12-19T04:57:32.336Z,-3.02
2022-12-19T05:00:35.789Z,-2.99
2022-12-19T05:03:38.748Z,-3.17
2022-12-19T05:06:42.080Z,-3.05
2022-12-19T05:09:45.009Z,-3.30
2022-12-19T05:12:48.330Z,-3.28
2022-12-19T05:16:04.820Z,-3.38
2022-12-19T05:19:08.556Z,-3.20
2022-12-19T05:22:12.763Z,-3.04
2022-12-19T05:25:16.062Z,-2.96
2022-12-19T05:28:20.119Z,-2.87
2022-12-19T05:31:23.406Z,-2.76
2022-12-19T05:34:26.427Z,-2.76
2022-12-19T05:37:29.652Z,-2.69
2022-12-19T05:40:32.572Z,-2.62
2022-12-19T05:43:35.897Z,-2.65
2022-12-19T05:46:39.174Z,-2.73
2022-12-19T05:49:42.382Z,-2.94
2022-12-19T05:52:45.277Z,-2.99
2022-12-19T05:55:48.466Z,-3.01
2022-12-19T05:58:51.392Z,-2.96
2022-12-19T06:01:55.704Z,-2.99
2022-12-19T06:04:59.125Z,-3.06
2022-12-19T06:08:02.373Z,-3.06
2022-12-19T06:11:07.122Z,-3.02
2022-12-19T06:14:10.070Z,-2.93
2022-12-19T06:17:13.289Z,-2.89
2022-12-19T06:20:16.160Z,-2.97
2022-12-19T06:23:19.230Z,-3.00
2022-12-19T06:26:22.703Z,-3.02
2022-12-19T06:29:25.832Z,-3.02
2022-12-19T06:32:30.479Z,-3.00
2022-12-19T06:35:46.693Z,-3.04
2022-12-19T06:38:52.156Z,-3.08
2022-12-19T06:42:15.146Z,-3.08
2022-12-19T06:45:18.679Z,-3.09
2022-12-19T06:48:21.910Z,-3.03
2022-12-19T06:51:24.812Z,-2.97
2022-12-19T06:54:28.311Z,-2.94
2022-12-19T06:57:31.205Z,-2.90
2022-12-19T07:00:37.221Z,-2.85
2022-12-19T07:03:41.226Z,-2.86
2022-12-19T07:06:49.015Z,-2.90
2022-12-19T07:09:52.161Z,-2.93
2022-12-19T07:12:55.529Z,-2.96
2022-12-19T07:16:01.329Z,-2.91
2022-12-19T07:19:05.264Z,-2.89
2022-12-19T07:22:09.774Z,-2.86
2022-12-19T07:25:13.083Z,-2.81
2022-12-19T07:28:17.013Z,-2.65
2022-12-19T07:31:20.324Z,-2.57
2022-12-19T07:34:23.289Z,-2.44
2022-12-19T07:37:26.537Z,-2.31
2022-12-19T07:40:29.480Z,-2.22
2022-12-19T07:43:32.661Z,-2.17
2022-12-19T07:46:35.899Z,-2.01
2022-12-19T07:49:39.090Z,-1.82
2022-12-19T07:52:42.463Z,-1.85
2022-12-19T07:55:45.713Z,-1.79
2022-12-19T07:58:48.660Z,-1.70
2022-12-19T08:01:52.422Z,-1.78
2022-12-19T08:04:55.770Z,-1.63
2022-12-19T08:07:58.943Z,-1.65
2022-12-19T08:11:22.395Z,-1.52
2022-12-19T08:14:25.363Z,-1.54
2022-12-19T08:17:28.726Z,-1.40
2022-12-19T08:20:31.703Z,-1.46
2022-12-19T08:23:34.999Z,-1.60
2022-12-19T08:26:41.839Z,-1.39
2022-12-19T08:29:47.390Z,-1.37
2022-12-19T08:32:50.363Z,-1.29
2022-12-19T08:35:54.249Z,-1.20
2022-12-19T08:38:57.543Z,-1.19
2022-12-19T08:42:01.356Z,-1.26
2022-12-19T08:45:05.022Z,-1.18
2022-12-19T08:48:21.117Z,-1.19
2022-12-19T08:51:24.614Z,-1.06
2022-12-19T08:54:27.831Z,-1.02
2022-12-19T08:57:30.799Z,-1.10
2022-12-19T09:00:34.140Z,-1.07
2022-12-19T09:03:44.061Z,-0.68
2022-12-19T09:07:00.678Z,-0.66
2022-12-19T09:10:04.301Z,-0.52
2022-12-19T09:13:08.942Z,-0.65
2022-12-19T09:16:20.902Z,-0.47
2022-12-19T09:19:24.099Z,-0.26
2022-12-19T09:22:27.783Z,-0.25
2022-12-19T09:25:32.890Z,-0.14
2022-12-19T09:28:36.661Z,-0.01
2022-12-19T09:31:40.251Z,-0.19
2022-12-19T09:34:43.168Z,-0.24
2022-12-19T09:37:46.323Z,-0.03
2022-12-19T09:41:07.655Z,-0.35
2022-12-19T09:44:30.125Z,0.00
2022-12-19T09:47:34.327Z,-0.27
2022-12-19T09:51:10.653Z,-0.07
2022-12-19T09:54:19.173Z,0.18
2022-12-19T09:57:40.175Z,0.01
2022-12-19T10:00:48.728Z,0.25
2022-12-19T10:04:04.005Z,0.50
2022-12-19T10:07:31.491Z,0.37
2022-12-19T10:12:37.533Z,0.66
2022-12-19T10:14:47.230Z,0.87
2022-12-19T10:18:16.645Z,0.82
2022-12-19T10:21:59.065Z,0.92
2022-12-19T10:25:09.413Z,1.03
2022-12-19T10:28:36.026Z,1.12
2022-12-19T10:31:59.859Z,1.23
2022-12-19T10:35:05.598Z,1.30
2022-12-19T10:38:23.103Z,1.24
2022-12-19T10:41:32.619Z,1.48
2022-12-19T10:44:38.845Z,1.28
2022-12-19T10:47:43.949Z,1.28
2022-12-19T10:50:47.364Z,1.15
2022-12-19T10:53:59.622Z,1.12
2022-12-19T10:57:24.164Z,1.43
2022-12-19T11:00:28.231Z,1.12
2022-12-19T11:03:37.366Z,1.41
2022-12-19T11:06:57.056Z,1.06
2022-12-19T11:10:36.855Z,0.94
2022-12-19T11:19:02.518Z,0.60
2022-12-19T11:23:55.952Z,1.07
2022-12-19T11:29:25.901Z,1.39
2022-12-19T11:29:40.718Z,1.79
2022-12-19T11:29:54.359Z,1.63
2022-12-19T11:34:49.662Z,2.35
2022-12-19T11:38:00.361Z,2.54
2022-12-19T11:41:15.231Z,2.51
2022-12-19T11:44:27.948Z,3.45
2022-12-19T11:47:53.521Z,4.34
2022-12-19T11:51:32.403Z,4.69
2022-12-19T11:54:41.873Z,5.30
2022-12-19T11:57:45.835Z,5.39
2022-12-19T12:01:05.991Z,5.12
2022-12-19T12:04:40.653Z,5.75
2022-12-19T12:09:46.155Z,6.23
2022-12-19T12:16:13.436Z,5.96
2022-12-19T12:26:33.538Z,6.13
2022-12-19T12:31:20.310Z,6.48
2022-12-19T12:31:26.087Z,5.61
2022-12-19T12:31:43.406Z,7.40
2022-12-19T12:31:51.872Z,8.13
2022-12-19T12:35:41.443Z,8.09
2022-12-19T12:41:02.119Z,8.02
2022-12-19T12:44:10.349Z,8.04
2022-12-19T12:47:39.813Z,7.69
2022-12-19T12:50:42.842Z,7.57
2022-12-19T12:53:47.237Z,7.42
2022-12-19T12:56:50.103Z,7.77
2022-12-19T13:00:19.394Z,6.87
2022-12-19T13:03:25.298Z,6.74
2022-12-19T13:06:41.997Z,6.92
2022-12-19T13:09:45.861Z,7.10
2022-12-19T13:12:59.994Z,6.76
2022-12-19T13:16:41.230Z,7.48
2022-12-19T13:19:54.817Z,7.91
2022-12-19T13:23:00.403Z,7.99
2022-12-19T13:26:04.039Z,7.51
2022-12-19T13:29:59.180Z,7.10
2022-12-19T13:33:02.255Z,6.73
2022-12-19T13:38:47.798Z,5.85
2022-12-19T13:40:11.050Z,5.39
2022-12-19T13:43:49.041Z,5.16
2022-12-19T13:46:52.258Z,5.01
2022-12-19T13:49:55.991Z,4.02
2022-12-19T13:52:59.499Z,3.86
2022-12-19T13:56:05.557Z,3.34
2022-12-19T13:59:09.897Z,2.85
2022-12-19T14:02:28.225Z,2.39
2022-12-19T14:06:15.001Z,2.34
2022-12-19T14:10:24.026Z,2.07
2022-12-19T14:13:43.628Z,1.65
2022-12-19T14:16:17.513Z,1.41
2022-12-19T14:19:29.036Z,1.15
2022-12-19T14:22:32.777Z,0.90
2022-12-19T14:28:20.708Z,0.62
2022-12-19T14:30:28.908Z,0.37
2022-12-19T14:33:46.086Z,0.12
2022-12-19T14:36:27.132Z,-0.14
2022-12-19T14:39:35.665Z,-0.38
2022-12-19T14:43:59.410Z,-0.44
2022-12-19T14:52:35.169Z,-0.67
2022-12-19T14:54:24.478Z,-0.98
2022-12-19T14:54:47.598Z,-1.05
2022-12-19T14:57:01.563Z,-1.18
2022-12-19T15:01:07.516Z,-1.28
2022-12-19T15:04:49.607Z,-1.43
2022-12-19T15:07:25.869Z,-1.61
2022-12-19T15:11:03.942Z,-1.56
2022-12-19T15:14:53.359Z,-1.64
2022-12-19T15:17:24.636Z,-1.80
2022-12-19T15:20:27.601Z,-1.75
2022-12-19T15:23:32.868Z,-1.95
2022-12-19T15:26:42.024Z,-2.00
2022-12-19T15:29:49.863Z,-2.09
2022-12-19T15:32:53.367Z,-2.01
2022-12-19T15:35:56.247Z,-1.98
2022-12-19T15:39:00.325Z,-2.01
2022-12-19T15:42:03.645Z,-2.03
2022-12-19T15:45:08.142Z,-2.11
2022-12-19T15:48:17.167Z,-2.09
2022-12-19T15:51:20.330Z,-2.16
2022-12-19T15:54:48.643Z,-2.10
2022-12-19T15:57:48.648Z,-2.12
2022-12-19T16:00:58.150Z,-2.24
2022-12-19T16:04:03.560Z,-2.14
2022-12-19T16:07:15.063Z,-2.12
2022-12-19T16:10:18.504Z,-2.09
2022-12-19T16:13:27.595Z,-2.20
2022-12-19T16:16:30.857Z,-2.07
2022-12-19T16:19:33.903Z,-2.12
2022-12-19T16:22:38.918Z,-2.11
2022-12-19T16:25:52.014Z,-2.17
2022-12-19T16:28:55.260Z,-2.14
2022-12-19T16:31:58.347Z,-2.01
2022-12-19T16:35:01.572Z,-1.95
2022-12-19T16:38:04.522Z,-2.03
2022-12-19T16:41:23.927Z,-2.07
2022-12-19T16:44:26.874Z,-1.97
2022-12-19T16:47:30.132Z,-1.93
2022-12-19T16:50:33.407Z,-2.02
2022-12-19T16:53:36.647Z,-2.02
2022-12-19T16:56:41.926Z,-2.01
2022-12-19T16:59:46.509Z,-1.97
2022-12-19T17:02:57.552Z,-1.93
2022-12-19T17:06:01.367Z,-2.03
2022-12-19T17:09:04.053Z,-1.90
2022-12-19T17:12:10.050Z,-1.88
2022-12-19T17:15:29.637Z,-1.86
2022-12-19T17:18:35.373Z,-1.93
2022-12-19T17:21:40.813Z,-1.97
2022-12-19T17:24:46.801Z,-1.85
2022-12-19T17:27:52.129Z,-1.89
2022-12-19T17:30:57.930Z,-1.78
2022-12-19T17:34:00.749Z,-1.71
2022-12-19T17:37:05.457Z,-1.67
2022-12-19T17:40:16.856Z,-1.81
2022-12-19T17:43:20.822Z,-1.73
2022-12-19T17:46:25.863Z,-1.59
2022-12-19T17:49:32.186Z,-1.60
2022-12-19T17:52:37.122Z,-1.49
2022-12-19T17:55:40.301Z,-1.45
2022-12-19T17:58:44.966Z,-1.43
2022-12-19T18:01:48.413Z,-1.45
2022-12-19T18:04:52.703Z,-1.50
2022-12-19T18:07:55.984Z,-1.40
2022-12-19T18:11:02.276Z,-1.39
2022-12-19T18:14:05.117Z,-1.41
2022-12-19T18:17:12.388Z,-1.42
2022-12-19T18:20:31.799Z,-1.33
2022-12-19T18:23:35.758Z,-1.40
2022-12-19T18:26:39.966Z,-1.56
2022-12-19T18:29:43.251Z,-1.54
2022-12-19T18:32:55.625Z,-1.48
2022-12-19T18:35:59.233Z,-1.60
2022-12-19T18:39:02.244Z,-1.77
2022-12-19T18:42:19.695Z,-1.70
2022-12-19T18:45:26.715Z,-1.71
2022-12-19T18:48:33.175Z,-1.53
2022-12-19T18:51:37.100Z,-1.55
2022-12-19T18:54:40.425Z,-1.59
2022-12-19T18:57:45.529Z,-1.47
2022-12-19T19:00:51.990Z,-1.47
2022-12-19T19:03:59.803Z,-1.39
2022-12-19T19:07:02.896Z,-1.50
2022-12-19T19:10:35.899Z,-1.36
2022-12-19T19:13:40.740Z,-1.32
2022-12-19T19:16:44.247Z,-1.24
2022-12-19T19:19:47.782Z,-1.16
2022-12-19T19:22:54.449Z,-1.32
2022-12-19T19:25:58.385Z,-1.23
2022-12-19T19:29:03.125Z,-1.23
2022-12-19T19:32:06.692Z,-1.26
2022-12-19T19:35:11.173Z,-1.18
2022-12-19T19:38:17.022Z,-1.23
2022-12-19T19:41:21.405Z,-1.23
2022-12-19T19:44:26.998Z,-1.07
2022-12-19T19:47:32.496Z,-1.09
2022-12-19T19:50:36.658Z,-1.00
2022-12-19T19:53:40.845Z,-0.97
2022-12-19T19:56:44.902Z,-0.85
2022-12-19T19:59:49.396Z,-0.93
2022-12-19T20:02:53.156Z,-0.88
2022-12-19T20:06:01.306Z,-0.73
2022-12-19T20:09:13.484Z,-0.63
2022-12-19T20:12:18.213Z,-0.62
2022-12-19T20:15:21.243Z,-0.56
2022-12-19T20:18:24.711Z,-0.53
2022-12-19T20:21:29.611Z,-0.52
2022-12-19T20:24:32.955Z,-0.66
2022-12-19T20:27:36.206Z,-0.52
2022-12-19T20:30:39.573Z,-0.49
2022-12-19T20:33:42.775Z,-0.53
2022-12-19T20:36:46.768Z,-0.54
2022-12-19T20:39:49.818Z,-0.59
2022-12-19T20:42:52.847Z,-0.66
2022-12-19T20:46:04.524Z,-0.82
2022-12-19T20:49:09.822Z,-0.96
2022-12-19T20:52:13.030Z,-0.93
2022-12-19T20:55:16.711Z,-0.91
2022-12-19T20:58:19.834Z,-1.01
2022-12-19T21:01:24.639Z,-0.97
2022-12-19T21:04:28.046Z,-0.89
2022-12-19T21:07:32.460Z,-0.84
2022-12-19T21:10:35.739Z,-0.88
2022-12-19T21:13:39.831Z,-0.77
2022-12-19T21:16:42.917Z,-0.72
2022-12-19T21:19:46.191Z,-0.72
2022-12-19T21:22:49.291Z,-0.74
2022-12-19T21:25:53.168Z,-0.72
2022-12-19T21:28:58.185Z,-0.85
2022-12-19T21:32:01.564Z,-0.86
2022-12-19T21:35:05.547Z,-0.68
2022-12-19T21:38:09.350Z,-0.79
2022-12-19T21:41:12.791Z,-0.68
2022-12-19T21:44:15.917Z,-0.77
2022-12-19T21:47:18.884Z,-0.56
2022-12-19T21:50:22.084Z,-0.55
2022-12-19T21:53:25.893Z,-0.52
2022-12-19T21:56:34.613Z,-0.48
2022-12-19T21:59:37.550Z,-0.49
2022-12-19T22:02:50.830Z,-0.49
2022-12-19T22:06:04.896Z,-0.58
2022-12-19T22:09:10.891Z,-0.58
2022-12-19T22:12:14.547Z,-0.48
2022-12-19T22:15:17.676Z,-0.56
2022-12-19T22:18:20.968Z,-0.52
2022-12-19T22:21:24.496Z,-0.59
2022-12-19T22:24:28.893Z,-0.60
2022-12-19T22:27:31.907Z,-0.60
2022-12-19T22:30:36.107Z,-0.69
2022-12-19T22:33:39.123Z,-0.72
2022-12-19T22:36:44.403Z,-0.87
2022-12-19T22:39:47.431Z,-0.86
2022-12-19T22:42:52.271Z,-0.77
2022-12-19T22:45:55.635Z,-0.87
2022-12-19T22:49:01.676Z,-0.91
2022-12-19T22:52:04.877Z,-0.99
2022-12-19T22:55:08.494Z,-0.93
2022-12-19T22:58:12.019Z,-0.95
2022-12-19T23:01:26.593Z,-1.14
2022-12-19T23:04:31.076Z,-1.11
2022-12-19T23:07:35.655Z,-1.19
2022-12-19T23:10:38.722Z,-1.18
2022-12-19T23:13:42.555Z,-1.08
2022-12-19T23:16:45.717Z,-1.08
2022-12-19T23:19:49.129Z,-1.10
2022-12-19T23:22:52.547Z,-0.96
2022-12-19T23:25:55.899Z,-1.00
2022-12-19T23:29:01.490Z,-1.06
2022-12-19T23:32:05.066Z,-1.10
2022-12-19T23:35:08.472Z,-1.05
2022-12-19T23:38:12.051Z,-1.15
2022-12-19T23:41:16.179Z,-1.02
2022-12-19T23:44:19.777Z,-1.04
2022-12-19T23:47:23.518Z,-1.07
2022-12-19T23:50:26.803Z,-1.20
2022-12-19T23:53:30.793Z,-1.26
2022-12-19T23:56:35.396Z,-1.21
2022-12-19T23:59:38.249Z,-1.24
